LSZB Airport Information

Runway Information
Runway 14 Length 4954 ft width 98 ft
Elevation 1668 ft Threshold 656 ft Heading 140
Runway 32 Length 4954 ft Width 98 ft
Elevation 1674 ft Threshold 360 ft Heading 320
Runway 14L Length 2133 ft width 98 ft
Elevation 0 ft Threshold 0 ft Heading 140
Runway 32R Length 2133 ft Width 98 ft
Elevation 0 ft Threshold 0 ft Heading 320
Runway 14R Length 2125 ft width 98 ft
Elevation 0 ft Threshold 0 ft Heading 140
Runway 32L Length 2125 ft Width 98 ft
Elevation 0 ft Threshold 0 ft Heading 320
Airport Frequencies
Type A/D Name APP/DEP Frequency 127.325 MHZ
Type ATIS Name ATIS Frequency 125.125 MHZ
Type MISC Name GLIDER Frequency 123.4 MHZ
Type OPS Name ALPAR Frequency 135.75 MHZ
Type TWR Name TWR Frequency 121.025 MHZ
Airport Navaids
Type NDB Name Bern Frequency 335 KHZ
Type NDB Name Muri Frequency 312 KHZ
Type NDB Name Schupberg Frequency 357 KHZ
Airport Weather Information & NOTAM
ADDS - METARS form results

(1138 UTC 21 April 2018)
 
METAR text: LSZB 211120Z 26004KT 200V330 CAVOK 24/08 Q1021 NOSIG
Conditions at: LSZB (BERN/BELP , CH) observed 1120 UTC 21 April 2018
Temperature: 24.0°C (75°F)
Dewpoint: 8.0°C (46°F) [RH = 36%]
Pressure (altimeter): 30.15 inches Hg (1021.0 mb)
Winds: from the W (260 degrees) at 5 MPH (4 knots; 2.1 m/s)
Visibility: 6 or more miles (10+ km)
Ceiling: ceiling and visibility are OK
Clouds: unknown
Weather: no significant weather observed at this time

METAR text: LSZB 211050Z VRB02KT CAVOK 23/09 Q1021 NOSIG
Conditions at: LSZB (BERN/BELP , CH) observed 1050 UTC 21 April 2018
Temperature: 23.0°C (73°F)
Dewpoint: 9.0°C (48°F) [RH = 41%]
Pressure (altimeter): 30.15 inches Hg (1021.0 mb)
Winds: variable direction winds at 2 MPH (2 knots; 1.0 m/s)
Visibility: 6 or more miles (10+ km)
Ceiling: ceiling and visibility are OK
Clouds: unknown
Weather: no significant weather observed at this time